createdAt,value
2016-05-08T00:00:37.244Z,0
2016-05-08T00:01:37.402Z,0
2016-05-08T00:02:37.405Z,0
2016-05-08T00:03:37.408Z,0
2016-05-08T00:04:37.083Z,0
2016-05-08T00:05:37.242Z,0
2016-05-08T00:06:37.385Z,0
2016-05-08T00:07:37.388Z,0
2016-05-08T00:08:37.390Z,0
2016-05-08T00:09:37.378Z,0
2016-05-08T00:10:37.224Z,0
2016-05-08T00:11:37.367Z,0
2016-05-08T00:12:37.995Z,0
2016-05-08T00:13:37.389Z,0
2016-05-08T00:14:37.359Z,0
2016-05-08T00:15:37.050Z,0
2016-05-08T00:16:37.225Z,0
2016-05-08T00:17:37.353Z,0
2016-05-08T00:18:37.198Z,0
2016-05-08T00:19:37.201Z,0
2016-05-08T00:20:37.360Z,0
2016-05-08T00:21:37.347Z,0
2016-05-08T00:22:37.335Z,0
2016-05-08T00:23:37.228Z,0
2016-05-08T00:24:37.347Z,0
2016-05-08T00:25:37.037Z,0
2016-05-08T00:26:37.352Z,0
2016-05-08T00:27:38.182Z,0
2016-05-08T00:28:37.671Z,0
2016-05-08T00:29:38.798Z,0
2016-05-08T00:30:37.020Z,0
2016-05-08T00:31:38.366Z,0
2016-05-08T00:32:38.134Z,0
2016-05-08T00:33:37.777Z,0
2016-05-08T00:34:37.170Z,0
2016-05-08T00:35:37.189Z,0
2016-05-08T00:36:37.332Z,0
2016-05-08T00:37:37.742Z,0
2016-05-08T00:38:37.478Z,0
2016-05-08T00:39:37.309Z,0
2016-05-08T00:40:38.124Z,0
2016-05-08T00:41:38.017Z,0
2016-05-08T00:42:37.458Z,0
2016-05-08T00:43:37.914Z,0
2016-05-08T00:44:37.150Z,0
2016-05-08T00:45:37.294Z,0
2016-05-08T00:46:37.125Z,0
2016-05-08T00:47:37.284Z,0
2016-05-08T00:48:37.130Z,0
2016-05-08T00:49:37.117Z,0
2016-05-08T00:50:37.276Z,0
2016-05-08T00:51:37.107Z,0
2016-05-08T00:52:37.124Z,0
2016-05-08T00:53:51.503Z,0
2016-05-08T00:54:37.271Z,0
2016-05-08T00:55:37.337Z,0
2016-05-08T00:56:37.432Z,0
2016-05-08T00:57:37.873Z,0
2016-05-08T00:58:37.859Z,0
2016-05-08T00:59:37.254Z,0
2016-05-08T01:00:37.413Z,0
2016-05-08T01:01:37.259Z,0
2016-05-08T01:02:38.245Z,0
2016-05-08T01:03:37.234Z,0
2016-05-08T01:04:37.111Z,0
2016-05-08T01:05:37.910Z,0
2016-05-08T01:06:51.413Z,0
2016-05-08T01:07:37.681Z,0
2016-05-08T01:08:37.292Z,0
2016-05-08T01:09:37.077Z,0
2016-05-08T01:10:37.064Z,0
2016-05-08T01:11:37.223Z,0
2016-05-08T01:12:37.242Z,0
2016-05-08T01:13:37.228Z,0
2016-05-08T01:14:37.216Z,0
2016-05-08T01:15:37.203Z,0
2016-05-08T01:16:37.222Z,0
2016-05-08T01:17:37.224Z,0
2016-05-08T01:18:37.211Z,0
2016-05-08T01:19:37.197Z,0
2016-05-08T01:20:37.200Z,0
2016-05-08T01:21:37.203Z,0
2016-05-08T01:22:37.035Z,0
2016-05-08T01:23:37.177Z,0
2016-05-08T01:24:36.883Z,0
2016-05-08T01:25:37.027Z,0
2016-05-08T01:26:37.030Z,0
2016-05-08T01:27:37.188Z,0
2016-05-08T01:28:37.177Z,0
2016-05-08T01:29:37.179Z,0
2016-05-08T01:30:37.010Z,0
2016-05-08T01:31:37.152Z,0
2016-05-08T01:32:37.156Z,0
2016-05-08T01:33:36.986Z,0
2016-05-08T01:34:37.161Z,0
2016-05-08T01:35:37.163Z,0
2016-05-08T01:36:37.151Z,0
2016-05-08T01:37:37.121Z,0
2016-05-08T01:38:37.141Z,0
2016-05-08T01:39:37.159Z,0
2016-05-08T01:40:37.146Z,0
2016-05-08T01:41:36.976Z,0
2016-05-08T01:42:36.964Z,0
2016-05-08T01:43:37.123Z,0
2016-05-08T01:44:36.970Z,0
2016-05-08T01:45:36.956Z,0
2016-05-08T01:46:37.412Z,0
2016-05-08T01:47:39.056Z,0
2016-05-08T01:48:37.105Z,0
2016-05-08T01:49:37.092Z,0
2016-05-08T01:50:37.579Z,0
2016-05-08T01:51:37.081Z,0
2016-05-08T01:52:37.819Z,0
2016-05-08T01:53:36.931Z,0
2016-05-08T01:54:36.793Z,0
2016-05-08T01:56:39.439Z,0
2016-05-08T01:57:38.910Z,0
2016-05-08T01:58:37.178Z,0
2016-05-08T01:59:37.635Z,0
2016-05-08T02:00:37.403Z,0
2016-05-08T02:01:37.031Z,0
2016-05-08T02:02:37.799Z,0
2016-05-08T02:03:37.051Z,0
2016-05-08T02:04:36.741Z,0
2016-05-08T02:05:37.057Z,0
2016-05-08T02:06:37.044Z,0
2016-05-08T02:07:37.032Z,0
2016-05-08T02:08:37.034Z,0
2016-05-08T02:09:37.051Z,0
2016-05-08T02:10:37.040Z,0
2016-05-08T02:11:37.027Z,0
2016-05-08T02:12:38.091Z,0
2016-05-08T02:14:34.831Z,0
2016-05-08T02:14:46.956Z,0
2016-05-08T02:15:47.303Z,0
2016-05-08T02:16:47.492Z,0
2016-05-08T02:17:47.090Z,0
2016-05-08T02:18:47.326Z,0
2016-05-08T02:19:47.079Z,0
2016-05-08T02:20:46.941Z,0
2016-05-08T02:22:02.803Z,0
2016-05-08T02:23:15.431Z,0
2016-05-08T02:24:02.403Z,0
2016-05-08T02:24:47.764Z,0
2016-05-08T02:26:01.736Z,0
2016-05-08T02:26:47.300Z,0
2016-05-08T02:27:47.163Z,0
2016-05-08T02:28:47.197Z,0
2016-05-08T02:29:46.887Z,0
2016-05-08T02:30:47.030Z,0
2016-05-08T02:31:47.033Z,0
2016-05-08T02:32:47.036Z,0
2016-05-08T02:33:46.882Z,0
2016-05-08T02:34:47.025Z,0
2016-05-08T02:35:47.013Z,0
2016-05-08T02:36:47.030Z,0
2016-05-08T02:37:47.018Z,0
2016-05-08T02:38:47.005Z,0
2016-05-08T02:39:47.007Z,0
2016-05-08T02:40:46.854Z,0
2016-05-08T02:41:47.031Z,0
2016-05-08T02:42:47.392Z,0
2016-05-08T02:43:47.130Z,0
2016-05-08T02:44:47.165Z,0
2016-05-08T02:45:47.199Z,0
2016-05-08T02:46:47.073Z,0
2016-05-08T02:47:47.250Z,0
2016-05-08T02:48:47.113Z,0
2016-05-08T02:49:47.274Z,0
2016-05-08T02:50:47.294Z,0
2016-05-08T02:51:47.290Z,0
2016-05-08T02:52:47.283Z,0
2016-05-08T02:53:47.278Z,0
2016-05-08T02:54:47.286Z,0
2016-05-08T02:55:47.153Z,0
2016-05-08T02:56:47.301Z,0
2016-05-08T02:57:47.150Z,0
2016-05-08T02:58:47.295Z,0
2016-05-08T02:59:47.285Z,0
2016-05-08T03:00:47.133Z,0
2016-05-08T03:01:47.137Z,0
2016-05-08T03:02:47.281Z,0
2016-05-08T03:03:47.112Z,0
2016-05-08T03:04:46.960Z,0
2016-05-08T03:05:48.839Z,0
2016-05-08T03:06:47.264Z,0
2016-05-08T03:07:48.626Z,0
2016-05-08T03:08:47.582Z,5
2016-05-08T03:09:47.835Z,5
2016-05-08T03:10:47.557Z,5
2016-05-08T03:11:47.263Z,5
2016-05-08T03:12:47.266Z,5
2016-05-08T03:13:47.081Z,5
2016-05-08T03:14:49.365Z,5
2016-05-08T03:15:47.757Z,5
2016-05-08T03:16:48.074Z,10
2016-05-08T03:17:47.935Z,10
2016-05-08T03:18:47.501Z,10
2016-05-08T03:19:47.347Z,10
2016-05-08T03:20:47.476Z,10
2016-05-08T03:21:47.212Z,15
2016-05-08T03:22:46.887Z,15
2016-05-08T03:23:47.201Z,15
2016-05-08T03:24:46.892Z,15
2016-05-08T03:25:47.191Z,20
2016-05-08T03:26:47.179Z,20
2016-05-08T03:27:47.181Z,20
2016-05-08T03:28:47.168Z,20
2016-05-08T03:29:47.170Z,25
2016-05-08T03:31:15.518Z,25
2016-05-08T03:31:49.457Z,25
2016-05-08T03:32:48.117Z,30
2016-05-08T03:33:46.853Z,30
2016-05-08T03:34:47.137Z,35
2016-05-08T03:35:47.187Z,35
2016-05-08T03:36:46.986Z,35
2016-05-08T03:37:47.677Z,40
2016-05-08T03:38:46.991Z,40
2016-05-08T03:39:47.135Z,40
2016-05-08T03:41:01.950Z,45
2016-05-08T03:41:47.124Z,45
2016-05-08T03:42:47.035Z,50
2016-05-08T03:43:47.912Z,50
2016-05-08T03:44:47.399Z,50
2016-05-08T03:45:47.307Z,55
2016-05-08T03:46:47.341Z,55
2016-05-08T03:47:47.110Z,60
2016-05-08T03:48:47.113Z,60
2016-05-08T03:49:46.928Z,65
2016-05-08T03:50:46.931Z,65
2016-05-08T03:51:46.917Z,70
2016-05-08T03:52:46.904Z,70
2016-05-08T03:53:46.923Z,75
2016-05-08T03:54:46.910Z,75
2016-05-08T03:55:46.912Z,80
2016-05-08T03:56:47.056Z,80
2016-05-08T03:57:48.215Z,85
2016-05-08T03:58:47.045Z,85
2016-05-08T03:59:47.033Z,100
2016-05-08T04:00:47.051Z,110
2016-05-08T04:01:47.039Z,120
2016-05-08T04:02:47.041Z,125
2016-05-08T04:03:46.872Z,130
2016-05-08T04:04:47.014Z,130
2016-05-08T04:05:47.017Z,135
2016-05-08T04:06:47.020Z,145
2016-05-08T04:07:46.852Z,155
2016-05-08T04:08:47.025Z,160
2016-05-08T04:09:47.013Z,165
2016-05-08T04:10:47.000Z,170
2016-05-08T04:11:47.003Z,175
2016-05-08T04:12:47.240Z,185
2016-05-08T04:13:47.008Z,185
2016-05-08T04:14:46.995Z,185
2016-05-08T04:15:46.685Z,200
2016-05-08T04:16:46.985Z,210
2016-05-08T04:17:46.832Z,215
2016-05-08T04:18:46.927Z,220
2016-05-08T04:19:46.821Z,225
2016-05-08T04:20:46.824Z,230
2016-05-08T04:21:46.983Z,230
2016-05-08T04:22:46.829Z,235
2016-05-08T04:23:48.862Z,240
2016-05-08T04:24:48.147Z,250
2016-05-08T04:25:47.103Z,255
2016-05-08T04:26:48.356Z,265
2016-05-08T04:27:47.859Z,270
2016-05-08T04:28:47.173Z,280
2016-05-08T04:29:48.144Z,285
2016-05-08T04:30:46.975Z,295
2016-05-08T04:31:46.979Z,305
2016-05-08T04:32:46.840Z,315
2016-05-08T04:33:47.561Z,320
2016-05-08T04:34:47.908Z,325
2016-05-08T04:35:47.707Z,330
2016-05-08T04:36:47.273Z,330
2016-05-08T04:37:47.447Z,345
2016-05-08T04:38:47.481Z,360
2016-05-08T04:39:46.733Z,365
2016-05-08T04:40:47.019Z,360
2016-05-08T04:41:46.989Z,380
2016-05-08T04:42:47.148Z,405
2016-05-08T04:43:47.010Z,405
2016-05-08T04:44:46.873Z,395
2016-05-08T04:45:46.999Z,395
2016-05-08T04:46:47.035Z,415
2016-05-08T04:47:47.037Z,420
2016-05-08T04:48:46.882Z,425
2016-05-08T04:50:01.385Z,450
2016-05-08T04:50:47.889Z,470
2016-05-08T04:51:47.845Z,485
2016-05-08T04:52:46.894Z,480
2016-05-08T04:53:47.803Z,465
2016-05-08T04:54:47.306Z,465
2016-05-08T04:55:47.073Z,510
2016-05-08T04:56:47.234Z,555
2016-05-08T04:57:46.939Z,560
2016-05-08T04:58:47.081Z,520
2016-05-08T04:59:48.741Z,505
2016-05-08T05:00:48.056Z,535
2016-05-08T05:01:47.106Z,560
2016-05-08T05:02:47.656Z,575
2016-05-08T05:03:47.783Z,580
2016-05-08T05:04:47.786Z,595
2016-05-08T05:05:47.085Z,615
2016-05-08T05:06:46.838Z,625
2016-05-08T05:07:47.153Z,615
2016-05-08T05:08:47.172Z,635
2016-05-08T05:09:47.189Z,640
2016-05-08T05:10:47.192Z,635
2016-05-08T05:11:47.195Z,640
2016-05-08T05:12:47.947Z,645
2016-05-08T05:13:47.216Z,640
2016-05-08T05:14:47.219Z,640
2016-05-08T05:15:46.909Z,665
2016-05-08T05:16:47.240Z,705
2016-05-08T05:17:47.243Z,715
2016-05-08T05:18:47.104Z,715
2016-05-08T05:19:47.107Z,735
2016-05-08T05:20:47.282Z,760
2016-05-08T05:21:47.301Z,770
2016-05-08T05:22:46.990Z,770
2016-05-08T05:23:47.306Z,765
2016-05-08T05:24:47.324Z,760
2016-05-08T05:25:50.327Z,775
2016-05-08T05:26:47.345Z,800
2016-05-08T05:27:47.363Z,810
2016-05-08T05:28:47.037Z,815
2016-05-08T05:29:47.212Z,810
2016-05-08T05:30:47.075Z,795
2016-05-08T05:31:47.406Z,795
2016-05-08T05:32:47.408Z,825
2016-05-08T05:33:47.426Z,890
2016-05-08T05:34:47.414Z,935
2016-05-08T05:35:47.120Z,925
2016-05-08T05:36:47.294Z,905
2016-05-08T05:37:47.296Z,885
2016-05-08T05:38:47.002Z,890
2016-05-08T05:39:47.474Z,945
2016-05-08T05:40:47.336Z,1020
2016-05-08T05:41:47.198Z,1050
2016-05-08T05:42:50.435Z,1055
2016-05-08T05:43:49.484Z,1045
2016-05-08T05:44:47.549Z,1045
2016-05-08T05:45:48.022Z,1075
2016-05-08T05:46:47.430Z,1120
2016-05-08T05:47:47.683Z,1140
2016-05-08T05:48:47.951Z,1150
2016-05-08T05:49:47.610Z,1165
2016-05-08T05:50:47.753Z,1165
2016-05-08T05:51:47.491Z,1155
2016-05-08T05:52:49.634Z,1160
2016-05-08T05:53:48.996Z,1195
2016-05-08T05:54:47.904Z,1205
2016-05-08T05:55:48.595Z,1220
2016-05-08T05:56:47.878Z,1210
2016-05-08T05:57:48.490Z,1230
2016-05-08T05:58:47.978Z,1240
2016-05-08T05:59:47.731Z,1265
2016-05-08T06:00:47.436Z,1315
2016-05-08T06:01:47.767Z,1385
2016-05-08T06:02:47.770Z,1395
2016-05-08T06:03:47.789Z,1315
2016-05-08T06:04:47.792Z,1215
2016-05-08T06:05:47.825Z,1175
2016-05-08T06:06:47.827Z,1205
2016-05-08T06:07:47.845Z,1270
2016-05-08T06:08:48.145Z,1315
2016-05-08T06:09:49.069Z,1375
2016-05-08T06:11:02.745Z,1425
2016-05-08T06:11:48.981Z,1415
2016-05-08T06:13:48.019Z,1320
2016-05-08T06:14:47.958Z,1345
2016-05-08T06:15:48.086Z,1360
2016-05-08T06:16:47.791Z,1360
2016-05-08T06:17:51.216Z,1355
2016-05-08T06:19:02.344Z,1415
2016-05-08T06:19:48.941Z,1460
2016-05-08T06:20:47.849Z,1515
2016-05-08T06:21:47.868Z,1555
2016-05-08T06:22:48.167Z,1615
2016-05-08T06:23:48.420Z,1635
2016-05-08T06:24:48.329Z,1580
2016-05-08T06:25:48.175Z,1535
2016-05-08T06:26:48.085Z,1540
2016-05-08T06:27:48.149Z,1585
2016-05-08T06:28:47.949Z,1605
2016-05-08T06:29:48.123Z,1605
2016-05-08T06:30:47.986Z,1615
2016-05-08T06:31:48.004Z,1640
2016-05-08T06:32:48.022Z,1665
2016-05-08T06:33:48.040Z,1680
2016-05-08T06:34:48.059Z,1660
2016-05-08T06:35:48.218Z,1710
2016-05-08T06:36:48.236Z,1865
2016-05-08T06:37:48.098Z,2020
2016-05-08T06:38:48.116Z,2040
2016-05-08T06:39:48.135Z,1925
2016-05-08T06:40:48.309Z,1760
2016-05-08T06:41:48.312Z,1660
2016-05-08T06:42:48.331Z,1705
2016-05-08T06:43:48.349Z,1780
2016-05-08T06:44:48.039Z,1830
2016-05-08T06:45:48.370Z,1850
2016-05-08T06:46:48.404Z,1855
2016-05-08T06:47:48.407Z,1865
2016-05-08T06:48:48.425Z,1875
2016-05-08T06:49:48.130Z,1895
2016-05-08T06:50:48.461Z,1940
2016-05-08T06:51:48.464Z,1960
2016-05-08T06:52:48.483Z,1975
2016-05-08T06:53:48.344Z,1925
2016-05-08T06:54:48.519Z,1895
2016-05-08T06:55:48.537Z,1875
2016-05-08T06:56:48.556Z,1885
2016-05-08T06:57:48.589Z,1925
2016-05-08T06:58:48.592Z,1970
2016-05-08T06:59:48.610Z,1995
2016-05-08T07:00:48.473Z,2050
2016-05-08T07:01:49.616Z,2105
2016-05-08T07:02:50.712Z,2125
2016-05-08T07:03:48.512Z,2100
2016-05-08T07:04:49.734Z,2055
2016-05-08T07:05:49.064Z,2040
2016-05-08T07:06:48.723Z,2035
2016-05-08T07:07:48.741Z,2070
2016-05-08T07:08:48.775Z,2120
2016-05-08T07:09:48.778Z,2150
2016-05-08T07:11:50.361Z,2005
2016-05-08T07:12:50.067Z,1945
2016-05-08T07:13:48.836Z,1905
2016-05-08T07:14:49.948Z,1950
2016-05-08T07:15:49.060Z,2005
2016-05-08T07:16:49.781Z,2060
2016-05-08T07:17:49.190Z,2070
2016-05-08T07:18:49.068Z,2065
2016-05-08T07:19:48.805Z,2070
2016-05-08T07:20:48.979Z,2040
2016-05-08T07:21:48.999Z,2025
2016-05-08T07:22:49.016Z,2055
2016-05-08T07:23:49.019Z,2095
2016-05-08T07:24:49.038Z,2125
2016-05-08T07:25:48.899Z,2120
2016-05-08T07:26:49.074Z,2130
2016-05-08T07:27:49.905Z,2145
2016-05-08T07:28:48.970Z,2145
2016-05-08T07:29:48.972Z,2120
2016-05-08T07:30:48.991Z,2050
2016-05-08T07:31:49.181Z,1920
2016-05-08T07:32:49.043Z,1800
2016-05-08T07:33:48.890Z,1790
2016-05-08T07:34:49.220Z,1825
2016-05-08T07:35:49.098Z,1875
2016-05-08T07:36:49.273Z,1910
2016-05-08T07:37:49.120Z,1940
2016-05-08T07:38:49.294Z,1955
2016-05-08T07:39:49.327Z,1985
2016-05-08T07:40:49.331Z,2005
2016-05-08T07:41:49.348Z,2055
2016-05-08T07:42:49.367Z,2090
2016-05-08T07:43:49.385Z,2100
2016-05-08T07:44:49.403Z,2095
2016-05-08T07:45:49.266Z,2110
2016-05-08T07:46:49.441Z,2085
2016-05-08T07:47:49.302Z,2070
2016-05-08T07:48:49.163Z,2060
2016-05-08T07:49:49.354Z,2060
2016-05-08T07:50:49.357Z,2080
2016-05-08T07:51:49.532Z,2125
2016-05-08T07:52:49.394Z,2370
2016-05-08T07:53:49.427Z,2665
2016-05-08T07:54:49.587Z,2780
2016-05-08T07:55:49.590Z,2815
2016-05-08T07:56:49.623Z,2840
2016-05-08T07:57:50.157Z,2890
2016-05-08T07:58:49.660Z,2925
2016-05-08T07:59:49.521Z,2920
2016-05-08T08:00:49.540Z,2910
2016-05-08T08:01:49.574Z,2895
2016-05-08T08:02:49.748Z,2885
2016-05-08T08:03:49.751Z,2870
2016-05-08T08:04:49.770Z,2880
2016-05-08T08:05:49.632Z,2925
2016-05-08T08:06:49.650Z,2895
2016-05-08T08:07:49.668Z,2795
2016-05-08T08:08:49.703Z,2755
2016-05-08T08:09:49.861Z,2560
2016-05-08T08:10:49.739Z,2120
2016-05-08T08:11:49.898Z,1925
2016-05-08T08:12:50.072Z,1910
2016-05-08T08:13:49.778Z,1920
2016-05-08T08:14:49.953Z,1955
2016-05-08T08:15:49.972Z,1975
2016-05-08T08:16:50.021Z,1960
2016-05-08T08:17:50.008Z,1940
2016-05-08T08:18:50.027Z,1965
2016-05-08T08:19:50.044Z,2020
2016-05-08T08:20:52.125Z,2030
2016-05-08T08:21:51.925Z,1985
2016-05-08T08:22:51.271Z,1945
2016-05-08T08:23:50.133Z,1910
2016-05-08T08:24:50.824Z,1930
2016-05-08T08:25:50.248Z,1950
2016-05-08T08:26:50.173Z,1940
2016-05-08T08:28:51.100Z,1920
2016-05-08T08:29:52.540Z,1910
2016-05-08T08:31:51.483Z,1940
2016-05-08T08:32:51.485Z,1960
2016-05-08T08:33:50.567Z,1980
2016-05-08T08:34:50.490Z,1995
2016-05-08T08:35:50.540Z,1990
2016-05-08T08:36:51.715Z,1985
2016-05-08T08:37:50.187Z,1970
2016-05-08T08:38:50.861Z,1280
2016-05-08T08:40:04.551Z,365
2016-05-08T08:40:50.539Z,325
2016-05-08T08:41:50.339Z,325
2016-05-08T08:42:50.856Z,325
2016-05-08T08:43:50.639Z,325
2016-05-08T08:44:50.439Z,325
2016-05-08T08:45:50.286Z,320
2016-05-08T08:46:50.461Z,320
2016-05-08T08:47:50.322Z,320
2016-05-08T08:48:50.325Z,320
2016-05-08T08:49:50.500Z,315
2016-05-08T08:50:50.519Z,315
2016-05-08T08:51:50.521Z,310
2016-05-08T08:52:50.539Z,310
2016-05-08T08:53:50.385Z,310
2016-05-08T08:54:50.404Z,315
2016-05-08T08:55:50.563Z,310
2016-05-08T08:56:50.424Z,310
2016-05-08T08:57:50.585Z,310
2016-05-08T08:58:50.587Z,305
2016-05-08T08:59:50.605Z,305
2016-05-08T09:00:50.608Z,310
2016-05-08T09:01:50.454Z,310
2016-05-08T09:02:50.457Z,305
2016-05-08T09:03:50.615Z,305
2016-05-08T09:04:50.634Z,300
2016-05-08T09:05:50.637Z,300
2016-05-08T09:06:50.483Z,300
2016-05-08T09:07:50.502Z,300
2016-05-08T09:08:50.348Z,300
2016-05-08T09:09:50.506Z,305
2016-05-08T09:10:50.510Z,305
2016-05-08T09:11:50.684Z,305
2016-05-08T09:12:50.875Z,305
2016-05-08T09:13:50.689Z,300
2016-05-08T09:14:50.692Z,300
2016-05-08T09:15:50.555Z,300
2016-05-08T09:16:50.713Z,300
2016-05-08T09:17:50.700Z,295
2016-05-08T09:18:50.562Z,300
2016-05-08T09:19:50.409Z,300
2016-05-08T09:20:50.569Z,300
2016-05-08T09:21:50.727Z,300
2016-05-08T09:22:50.745Z,305
2016-05-08T09:23:50.576Z,310
2016-05-08T09:24:50.735Z,325
2016-05-08T09:25:50.582Z,335
2016-05-08T09:26:50.584Z,325
2016-05-08T09:27:51.477Z,305
2016-05-08T09:28:50.761Z,305
2016-05-08T09:29:50.780Z,305
2016-05-08T09:30:50.610Z,310
2016-05-08T09:31:50.613Z,305
2016-05-08T09:32:50.803Z,310
2016-05-08T09:33:50.775Z,330
2016-05-08T09:34:50.621Z,355
2016-05-08T09:35:50.795Z,370
2016-05-08T09:36:50.798Z,355
2016-05-08T09:38:01.817Z,305
2016-05-08T09:38:51.163Z,310
2016-05-08T09:39:51.447Z,335
2016-05-08T09:40:50.809Z,355
2016-05-08T09:41:51.937Z,310
2016-05-08T09:42:52.205Z,305
2016-05-08T09:43:50.848Z,310
2016-05-08T09:44:51.366Z,325
2016-05-08T09:46:50.842Z,355
2016-05-08T09:48:05.016Z,385
2016-05-08T09:48:51.706Z,420
2016-05-08T09:49:52.239Z,435
2016-05-08T09:50:52.149Z,430
2016-05-08T09:51:51.402Z,435
2016-05-08T09:52:51.013Z,395
2016-05-08T09:53:50.750Z,365
2016-05-08T09:54:51.237Z,365
2016-05-08T09:56:52.149Z,370
2016-05-08T09:58:51.452Z,395
2016-05-08T09:59:50.735Z,330
2016-05-08T10:00:50.894Z,370
2016-05-08T10:01:51.099Z,330
2016-05-08T10:02:50.759Z,300
2016-05-08T10:03:50.871Z,315
2016-05-08T10:04:50.921Z,355
2016-05-08T10:05:50.782Z,340
2016-05-08T10:06:50.785Z,320
2016-05-08T10:07:50.945Z,310
2016-05-08T10:08:50.947Z,310
2016-05-08T10:09:50.793Z,310
2016-05-08T10:10:50.811Z,300
2016-05-08T10:11:50.955Z,305
2016-05-08T10:12:51.146Z,305
2016-05-08T10:13:50.663Z,310
2016-05-08T10:14:50.964Z,310
2016-05-08T10:15:50.841Z,305
2016-05-08T10:16:50.984Z,300
2016-05-08T10:17:51.003Z,305
2016-05-08T10:18:51.005Z,310
2016-05-08T10:19:50.992Z,330
2016-05-08T10:20:50.855Z,370
2016-05-08T10:21:50.857Z,380
2016-05-08T10:22:51.031Z,430
2016-05-08T10:23:51.014Z,495
2016-05-08T10:24:50.876Z,525
2016-05-08T10:25:51.035Z,435
2016-05-08T10:26:51.038Z,395
2016-05-08T10:27:50.602Z,415
2016-05-08T10:28:51.043Z,420
2016-05-08T10:29:51.061Z,405
2016-05-08T10:30:50.752Z,395
2016-05-08T10:31:51.066Z,360
2016-05-08T10:32:51.069Z,355
2016-05-08T10:33:51.072Z,380
2016-05-08T10:34:59.621Z,395
2016-05-08T10:35:51.077Z,410
2016-05-08T10:36:51.095Z,475
2016-05-08T10:37:51.113Z,500
2016-05-08T10:38:50.960Z,450
2016-05-08T10:39:50.962Z,395
2016-05-08T10:40:51.121Z,385
2016-05-08T10:41:50.812Z,385
2016-05-08T10:42:51.487Z,385
2016-05-08T10:43:51.536Z,380
2016-05-08T10:44:51.132Z,380
2016-05-08T10:45:51.151Z,385
2016-05-08T10:46:50.998Z,380
2016-05-08T10:47:50.859Z,375
2016-05-08T10:48:51.159Z,380
2016-05-08T10:49:51.193Z,385
2016-05-08T10:50:51.181Z,375
2016-05-08T10:51:51.198Z,355
2016-05-08T10:52:51.186Z,355
2016-05-08T10:53:51.188Z,370
2016-05-08T10:54:51.206Z,370
2016-05-08T10:55:51.209Z,365
2016-05-08T10:56:51.212Z,350
2016-05-08T10:58:53.545Z,385
2016-05-08T10:59:51.830Z,445
2016-05-08T11:00:52.535Z,510
2016-05-08T11:01:52.038Z,525
2016-05-08T11:02:51.180Z,540
2016-05-08T11:03:51.105Z,510
2016-05-08T11:05:07.170Z,430
2016-05-08T11:06:05.485Z,400
2016-05-08T11:06:51.567Z,400
2016-05-08T11:08:06.460Z,395
2016-05-08T11:08:51.681Z,410
2016-05-08T11:10:06.496Z,455
2016-05-08T11:10:52.406Z,480
2016-05-08T11:11:52.018Z,505
2016-05-08T11:12:51.551Z,525
2016-05-08T11:13:51.757Z,540
2016-05-08T11:14:52.370Z,545
2016-05-08T11:15:52.185Z,535
2016-05-08T11:16:51.485Z,510
2016-05-08T11:18:51.349Z,450
2016-05-08T11:19:51.336Z,450
2016-05-08T11:20:51.386Z,470
2016-05-08T11:21:51.216Z,475
2016-05-08T11:22:51.375Z,520
2016-05-08T11:23:51.409Z,545
2016-05-08T11:24:51.240Z,565
2016-05-08T11:25:51.430Z,530
2016-05-08T11:26:51.261Z,485
2016-05-08T11:27:51.420Z,520
2016-05-08T11:28:51.422Z,530
2016-05-08T11:29:51.269Z,510
2016-05-08T11:30:51.459Z,500
2016-05-08T11:31:51.134Z,470
2016-05-08T11:32:51.434Z,455
2016-05-08T11:33:51.311Z,440
2016-05-08T11:34:51.502Z,430
2016-05-08T11:35:51.473Z,435
2016-05-08T11:36:51.476Z,440
2016-05-08T11:37:51.338Z,450
2016-05-08T11:38:51.496Z,430
2016-05-08T11:39:51.515Z,430
2016-05-08T11:40:51.518Z,425
2016-05-08T11:41:51.207Z,360
2016-05-08T11:42:51.632Z,325
2016-05-08T11:43:51.370Z,320
2016-05-08T11:44:51.528Z,330
2016-05-08T11:45:51.375Z,355
2016-05-08T11:46:51.548Z,340
2016-05-08T11:47:51.584Z,305
2016-05-08T11:48:51.645Z,295
2016-05-08T11:49:51.705Z,310
2016-05-08T11:50:51.734Z,310
2016-05-08T11:51:51.778Z,340
2016-05-08T11:52:51.661Z,350
2016-05-08T11:53:51.836Z,375
2016-05-08T11:54:51.853Z,390
2016-05-08T11:55:51.574Z,420
2016-05-08T11:56:51.903Z,395
2016-05-08T11:57:51.946Z,420
2016-05-08T11:58:51.922Z,405
2016-05-08T11:59:51.790Z,385
2016-05-08T12:00:51.954Z,395
2016-05-08T12:01:51.962Z,410
2016-05-08T12:02:51.968Z,430
2016-05-08T12:03:51.988Z,460
2016-05-08T12:04:51.993Z,445
2016-05-08T12:05:51.856Z,425
2016-05-08T12:06:52.017Z,395
2016-05-08T12:07:51.864Z,380
2016-05-08T12:08:52.024Z,385
2016-05-08T12:09:51.872Z,370
2016-05-08T12:10:52.047Z,350
2016-05-08T12:11:52.035Z,375
2016-05-08T12:12:52.053Z,420
2016-05-08T12:13:52.070Z,470
2016-05-08T12:14:52.074Z,490
2016-05-08T12:15:51.920Z,470
2016-05-08T12:16:55.189Z,450
2016-05-08T12:17:53.206Z,420
2016-05-08T12:18:53.554Z,405
2016-05-08T12:19:53.026Z,405
2016-05-08T12:20:52.903Z,430
2016-05-08T12:21:52.437Z,430
2016-05-08T12:22:52.361Z,430
2016-05-08T12:24:08.223Z,360
2016-05-08T12:24:53.632Z,325
2016-05-08T12:26:21.775Z,285
2016-05-08T12:27:07.106Z,310
2016-05-08T12:27:53.469Z,320
2016-05-08T12:28:52.299Z,345
2016-05-08T12:29:52.568Z,395
2016-05-08T12:30:52.086Z,435
2016-05-08T12:31:52.682Z,440
2016-05-08T12:32:52.560Z,425
2016-05-08T12:33:52.796Z,430
2016-05-08T12:34:52.191Z,400
2016-05-08T12:36:06.725Z,360
2016-05-08T12:36:52.915Z,380
2016-05-08T12:37:52.761Z,395
2016-05-08T12:38:52.467Z,405
2016-05-08T12:39:52.313Z,425
2016-05-08T12:40:52.066Z,490
2016-05-08T12:41:52.240Z,540
2016-05-08T12:42:52.243Z,550
2016-05-08T12:43:52.106Z,545
2016-05-08T12:44:52.248Z,520
2016-05-08T12:45:52.267Z,495
2016-05-08T12:46:52.270Z,480
2016-05-08T12:47:52.272Z,470
2016-05-08T12:48:52.290Z,445
2016-05-08T12:49:52.136Z,435
2016-05-08T12:50:52.295Z,405
2016-05-08T12:51:52.299Z,385
2016-05-08T12:52:52.005Z,385
2016-05-08T12:53:52.320Z,405
2016-05-08T12:54:52.322Z,420
2016-05-08T12:55:52.325Z,415
2016-05-08T12:56:52.186Z,405
2016-05-08T12:57:52.189Z,380
2016-05-08T12:58:51.924Z,350
2016-05-08T12:59:52.211Z,355
2016-05-08T13:00:52.370Z,370
2016-05-08T13:01:52.372Z,385
2016-05-08T13:02:52.391Z,410
2016-05-08T13:03:52.393Z,395
2016-05-08T13:04:52.396Z,380
2016-05-08T13:05:52.243Z,355
2016-05-08T13:06:52.260Z,340
2016-05-08T13:07:52.420Z,340
2016-05-08T13:08:52.423Z,370
2016-05-08T13:09:52.441Z,390
2016-05-08T13:10:52.287Z,385
2016-05-08T13:11:52.287Z,355
2016-05-08T13:12:52.465Z,335
2016-05-08T13:13:52.467Z,320
2016-05-08T13:14:52.470Z,305
2016-05-08T13:15:52.487Z,305
2016-05-08T13:16:52.491Z,325
2016-05-08T13:17:52.493Z,340
2016-05-08T13:18:52.496Z,335
2016-05-08T13:19:52.514Z,300
2016-05-08T13:20:52.342Z,290
2016-05-08T13:21:52.501Z,290
2016-05-08T13:22:52.364Z,295
2016-05-08T13:23:52.522Z,300
2016-05-08T13:24:52.384Z,320
2016-05-08T13:25:52.575Z,335
2016-05-08T13:26:52.546Z,335
2016-05-08T13:27:52.408Z,330
2016-05-08T13:28:52.411Z,325
2016-05-08T13:29:52.570Z,315
2016-05-08T13:30:52.604Z,310
2016-05-08T13:31:52.575Z,305
2016-05-08T13:32:52.578Z,305
2016-05-08T13:33:52.596Z,295
2016-05-08T13:34:52.443Z,295
2016-05-08T13:35:54.901Z,300
2016-05-08T13:36:52.854Z,295
2016-05-08T13:37:57.360Z,305
2016-05-08T13:38:53.691Z,310
2016-05-08T13:39:52.800Z,320
2016-05-08T13:40:52.756Z,325
2016-05-08T13:41:52.884Z,330
2016-05-08T13:43:22.264Z,330
2016-05-08T13:43:53.532Z,330
2016-05-08T13:44:54.707Z,320
2016-05-08T13:45:53.365Z,305
2016-05-08T13:47:08.384Z,300
2016-05-08T13:47:52.368Z,300
2016-05-08T13:48:52.792Z,300
2016-05-08T13:49:52.858Z,310
2016-05-08T13:50:53.410Z,320
2016-05-08T13:51:53.160Z,305
2016-05-08T13:52:52.726Z,290
2016-05-08T13:53:53.622Z,265
2016-05-08T13:54:52.731Z,255
2016-05-08T13:56:53.142Z,260
2016-05-08T13:57:52.848Z,255
2016-05-08T13:58:52.773Z,255
2016-05-08T13:59:52.760Z,255
2016-05-08T14:00:52.778Z,250
2016-05-08T14:01:52.625Z,245
2016-05-08T14:02:52.784Z,240
2016-05-08T14:03:52.802Z,235
2016-05-08T14:04:52.805Z,235
2016-05-08T14:05:52.651Z,235